sensor_id;sensor_type;location;lat;lon;timestamp;P1;durP1;ratioP1;P2;durP2;ratioP2
53062;SDS011;40529;52.172;10.548;2023-08-20T00:01:08;19.60;;;16.05;;
53062;SDS011;40529;52.172;10.548;2023-08-20T00:03:36;22.02;;;16.90;;
53062;SDS011;40529;52.172;10.548;2023-08-20T00:06:02;22.35;;;17.80;;
53062;SDS011;40529;52.172;10.548;2023-08-20T00:08:29;25.25;;;17.35;;
53062;SDS011;40529;52.172;10.548;2023-08-20T00:10:55;24.40;;;18.98;;
53062;SDS011;40529;52.172;10.548;2023-08-20T00:13:21;23.10;;;18.67;;
53062;SDS011;40529;52.172;10.548;2023-08-20T00:15:47;24.23;;;18.65;;
53062;SDS011;40529;52.172;10.548;2023-08-20T00:18:13;27.90;;;19.95;;
53062;SDS011;40529;52.172;10.548;2023-08-20T00:20:39;23.60;;;18.98;;
53062;SDS011;40529;52.172;10.548;2023-08-20T00:23:05;22.73;;;18.40;;
53062;SDS011;40529;52.172;10.548;2023-08-20T00:25:31;23.17;;;18.35;;
53062;SDS011;40529;52.172;10.548;2023-08-20T00:27:57;23.63;;;18.60;;
53062;SDS011;40529;52.172;10.548;2023-08-20T00:30:23;25.17;;;18.88;;
53062;SDS011;40529;52.172;10.548;2023-08-20T00:32:50;26.65;;;20.55;;
53062;SDS011;40529;52.172;10.548;2023-08-20T00:35:16;25.52;;;20.70;;
53062;SDS011;40529;52.172;10.548;2023-08-20T00:37:42;26.35;;;19.80;;
53062;SDS011;40529;52.172;10.548;2023-08-20T00:40:09;28.77;;;19.60;;
53062;SDS011;40529;52.172;10.548;2023-08-20T00:42:36;24.73;;;19.60;;
53062;SDS011;40529;52.172;10.548;2023-08-20T00:45:02;24.08;;;19.33;;
53062;SDS011;40529;52.172;10.548;2023-08-20T00:47:29;26.77;;;20.98;;
53062;SDS011;40529;52.172;10.548;2023-08-20T00:49:55;22.40;;;18.45;;
53062;SDS011;40529;52.172;10.548;2023-08-20T00:52:21;26.33;;;20.75;;
53062;SDS011;40529;52.172;10.548;2023-08-20T00:54:48;26.58;;;19.33;;
53062;SDS011;40529;52.172;10.548;2023-08-20T00:57:14;24.20;;;18.42;;
53062;SDS011;40529;52.172;10.548;2023-08-20T00:59:40;25.98;;;20.60;;
53062;SDS011;40529;52.172;10.548;2023-08-20T01:02:07;27.38;;;21.30;;
53062;SDS011;40529;52.172;10.548;2023-08-20T01:04:33;26.35;;;19.83;;
53062;SDS011;40529;52.172;10.548;2023-08-20T01:07:12;29.13;;;20.55;;
53062;SDS011;40529;52.172;10.548;2023-08-20T01:12:22;24.25;;;19.42;;
53062;SDS011;40529;52.172;10.548;2023-08-20T01:14:48;21.90;;;18.23;;
53062;SDS011;40529;52.172;10.548;2023-08-20T01:17:14;25.08;;;19.33;;
53062;SDS011;40529;52.172;10.548;2023-08-20T01:19:40;19.25;;;16.88;;
53062;SDS011;40529;52.172;10.548;2023-08-20T01:29:24;31.92;;;23.17;;
53062;SDS011;40529;52.172;10.548;2023-08-20T01:31:52;29.73;;;24.38;;
53062;SDS011;40529;52.172;10.548;2023-08-20T01:34:18;31.65;;;23.20;;
53062;SDS011;40529;52.172;10.548;2023-08-20T01:36:44;30.90;;;23.60;;
53062;SDS011;40529;52.172;10.548;2023-08-20T01:39:10;27.48;;;21.13;;
53062;SDS011;40529;52.172;10.548;2023-08-20T01:41:36;33.30;;;25.42;;
53062;SDS011;40529;52.172;10.548;2023-08-20T01:44:03;28.33;;;23.17;;
53062;SDS011;40529;52.172;10.548;2023-08-20T01:46:29;27.50;;;22.65;;
53062;SDS011;40529;52.172;10.548;2023-08-20T01:48:55;32.67;;;25.77;;
53062;SDS011;40529;52.172;10.548;2023-08-20T01:51:21;35.20;;;25.60;;
53062;SDS011;40529;52.172;10.548;2023-08-20T01:53:47;29.73;;;23.73;;
53062;SDS011;40529;52.172;10.548;2023-08-20T01:56:13;34.72;;;26.50;;
53062;SDS011;40529;52.172;10.548;2023-08-20T01:58:39;36.25;;;26.55;;
53062;SDS011;40529;52.172;10.548;2023-08-20T02:01:05;37.13;;;26.60;;
53062;SDS011;40529;52.172;10.548;2023-08-20T02:03:31;39.10;;;27.77;;
53062;SDS011;40529;52.172;10.548;2023-08-20T02:05:57;37.03;;;27.63;;
53062;SDS011;40529;52.172;10.548;2023-08-20T02:08:23;35.13;;;25.25;;
53062;SDS011;40529;52.172;10.548;2023-08-20T02:10:49;35.13;;;27.02;;
53062;SDS011;40529;52.172;10.548;2023-08-20T02:13:15;34.65;;;25.80;;
53062;SDS011;40529;52.172;10.548;2023-08-20T02:15:41;33.03;;;25.33;;
53062;SDS011;40529;52.172;10.548;2023-08-20T02:18:07;36.88;;;25.73;;
53062;SDS011;40529;52.172;10.548;2023-08-20T02:20:33;34.15;;;26.08;;
53062;SDS011;40529;52.172;10.548;2023-08-20T02:23:00;36.80;;;27.05;;
53062;SDS011;40529;52.172;10.548;2023-08-20T02:25:26;34.83;;;25.35;;
53062;SDS011;40529;52.172;10.548;2023-08-20T02:27:52;32.60;;;24.13;;
53062;SDS011;40529;52.172;10.548;2023-08-20T02:30:18;31.67;;;23.65;;
53062;SDS011;40529;52.172;10.548;2023-08-20T02:32:44;35.05;;;24.63;;
53062;SDS011;40529;52.172;10.548;2023-08-20T02:35:10;33.30;;;25.98;;
53062;SDS011;40529;52.172;10.548;2023-08-20T02:37:38;34.30;;;26.27;;
53062;SDS011;40529;52.172;10.548;2023-08-20T02:40:06;30.15;;;22.73;;
53062;SDS011;40529;52.172;10.548;2023-08-20T02:42:33;28.88;;;21.38;;
53062;SDS011;40529;52.172;10.548;2023-08-20T02:44:59;28.25;;;21.95;;
53062;SDS011;40529;52.172;10.548;2023-08-20T02:47:25;30.00;;;21.77;;
53062;SDS011;40529;52.172;10.548;2023-08-20T02:49:51;28.90;;;21.65;;
53062;SDS011;40529;52.172;10.548;2023-08-20T02:52:17;31.27;;;23.10;;
53062;SDS011;40529;52.172;10.548;2023-08-20T02:54:43;27.23;;;19.95;;
53062;SDS011;40529;52.172;10.548;2023-08-20T02:57:09;28.55;;;22.45;;
53062;SDS011;40529;52.172;10.548;2023-08-20T02:59:35;30.10;;;21.88;;
53062;SDS011;40529;52.172;10.548;2023-08-20T03:02:01;28.88;;;21.58;;
53062;SDS011;40529;52.172;10.548;2023-08-20T03:04:28;24.55;;;19.45;;
53062;SDS011;40529;52.172;10.548;2023-08-20T03:06:54;28.25;;;20.80;;
53062;SDS011;40529;52.172;10.548;2023-08-20T03:09:20;24.58;;;19.83;;
53062;SDS011;40529;52.172;10.548;2023-08-20T03:11:46;30.80;;;22.35;;
53062;SDS011;40529;52.172;10.548;2023-08-20T03:14:12;33.50;;;22.95;;
53062;SDS011;40529;52.172;10.548;2023-08-20T03:16:38;35.00;;;24.92;;
53062;SDS011;40529;52.172;10.548;2023-08-20T03:19:04;36.45;;;23.58;;
53062;SDS011;40529;52.172;10.548;2023-08-20T03:21:30;33.90;;;24.30;;
53062;SDS011;40529;52.172;10.548;2023-08-20T03:23:56;35.47;;;24.98;;
53062;SDS011;40529;52.172;10.548;2023-08-20T03:26:22;29.15;;;23.77;;
53062;SDS011;40529;52.172;10.548;2023-08-20T03:28:48;34.50;;;25.33;;
53062;SDS011;40529;52.172;10.548;2023-08-20T03:31:14;30.83;;;23.02;;
53062;SDS011;40529;52.172;10.548;2023-08-20T03:33:40;29.02;;;23.30;;
53062;SDS011;40529;52.172;10.548;2023-08-20T03:36:06;27.58;;;21.17;;
53062;SDS011;40529;52.172;10.548;2023-08-20T03:38:32;29.65;;;21.42;;
53062;SDS011;40529;52.172;10.548;2023-08-20T03:40:58;28.15;;;21.60;;
53062;SDS011;40529;52.172;10.548;2023-08-20T03:43:24;30.67;;;23.23;;
53062;SDS011;40529;52.172;10.548;2023-08-20T03:45:53;30.77;;;22.40;;
53062;SDS011;40529;52.172;10.548;2023-08-20T03:48:19;28.23;;;22.13;;
53062;SDS011;40529;52.172;10.548;2023-08-20T03:50:46;27.25;;;22.23;;
53062;SDS011;40529;52.172;10.548;2023-08-20T03:53:12;33.88;;;25.10;;
53062;SDS011;40529;52.172;10.548;2023-08-20T03:55:38;32.13;;;23.60;;
53062;SDS011;40529;52.172;10.548;2023-08-20T03:58:04;38.00;;;27.85;;
53062;SDS011;40529;52.172;10.548;2023-08-20T04:00:30;37.30;;;28.63;;
53062;SDS011;40529;52.172;10.548;2023-08-20T04:02:56;36.40;;;26.70;;
53062;SDS011;40529;52.172;10.548;2023-08-20T04:05:22;32.40;;;24.65;;
53062;SDS011;40529;52.172;10.548;2023-08-20T04:07:48;42.72;;;29.88;;
53062;SDS011;40529;52.172;10.548;2023-08-20T04:10:14;47.08;;;31.67;;
53062;SDS011;40529;52.172;10.548;2023-08-20T04:12:40;50.08;;;32.63;;
53062;SDS011;40529;52.172;10.548;2023-08-20T04:15:06;46.75;;;31.92;;
53062;SDS011;40529;52.172;10.548;2023-08-20T04:17:32;43.47;;;30.77;;
53062;SDS011;40529;52.172;10.548;2023-08-20T04:19:58;46.40;;;31.27;;
53062;SDS011;40529;52.172;10.548;2023-08-20T04:22:24;45.80;;;30.33;;
53062;SDS011;40529;52.172;10.548;2023-08-20T04:24:50;45.83;;;31.23;;
53062;SDS011;40529;52.172;10.548;2023-08-20T04:27:16;44.72;;;30.63;;
53062;SDS011;40529;52.172;10.548;2023-08-20T04:29:42;45.38;;;31.98;;
53062;SDS011;40529;52.172;10.548;2023-08-20T04:32:08;45.83;;;32.00;;
53062;SDS011;40529;52.172;10.548;2023-08-20T04:34:34;56.17;;;34.35;;
53062;SDS011;40529;52.172;10.548;2023-08-20T04:37:00;46.33;;;30.83;;
53062;SDS011;40529;52.172;10.548;2023-08-20T04:39:26;47.03;;;30.98;;
53062;SDS011;40529;52.172;10.548;2023-08-20T04:41:52;43.13;;;30.13;;
53062;SDS011;40529;52.172;10.548;2023-08-20T04:44:18;48.47;;;31.27;;
53062;SDS011;40529;52.172;10.548;2023-08-20T04:46:44;39.63;;;28.75;;
53062;SDS011;40529;52.172;10.548;2023-08-20T04:49:10;44.15;;;30.13;;
53062;SDS011;40529;52.172;10.548;2023-08-20T04:51:36;49.35;;;30.30;;
53062;SDS011;40529;52.172;10.548;2023-08-20T04:54:02;43.25;;;29.08;;
53062;SDS011;40529;52.172;10.548;2023-08-20T04:56:28;39.78;;;27.95;;
53062;SDS011;40529;52.172;10.548;2023-08-20T04:58:54;45.70;;;29.02;;
53062;SDS011;40529;52.172;10.548;2023-08-20T05:01:20;43.10;;;29.35;;
53062;SDS011;40529;52.172;10.548;2023-08-20T05:03:46;39.35;;;28.20;;
53062;SDS011;40529;52.172;10.548;2023-08-20T05:06:12;40.97;;;26.90;;
53062;SDS011;40529;52.172;10.548;2023-08-20T05:08:38;39.80;;;26.85;;
53062;SDS011;40529;52.172;10.548;2023-08-20T05:11:04;43.45;;;28.35;;
53062;SDS011;40529;52.172;10.548;2023-08-20T05:13:30;41.10;;;25.38;;
53062;SDS011;40529;52.172;10.548;2023-08-20T05:15:56;34.40;;;24.48;;
53062;SDS011;40529;52.172;10.548;2023-08-20T05:18:22;36.63;;;25.90;;
53062;SDS011;40529;52.172;10.548;2023-08-20T05:20:48;38.83;;;27.25;;
53062;SDS011;40529;52.172;10.548;2023-08-20T05:23:14;48.40;;;28.50;;
53062;SDS011;40529;52.172;10.548;2023-08-20T05:25:40;34.65;;;24.90;;
53062;SDS011;40529;52.172;10.548;2023-08-20T05:28:06;41.42;;;28.50;;
53062;SDS011;40529;52.172;10.548;2023-08-20T05:30:33;37.03;;;27.67;;
53062;SDS011;40529;52.172;10.548;2023-08-20T05:32:59;37.83;;;26.77;;
53062;SDS011;40529;52.172;10.548;2023-08-20T05:35:25;40.35;;;25.92;;
53062;SDS011;40529;52.172;10.548;2023-08-20T05:37:51;34.95;;;24.33;;
53062;SDS011;40529;52.172;10.548;2023-08-20T05:40:17;33.05;;;23.50;;
53062;SDS011;40529;52.172;10.548;2023-08-20T05:42:43;34.92;;;24.70;;
53062;SDS011;40529;52.172;10.548;2023-08-20T05:45:09;32.10;;;24.40;;
53062;SDS011;40529;52.172;10.548;2023-08-20T05:47:35;34.38;;;24.80;;
53062;SDS011;40529;52.172;10.548;2023-08-20T05:50:01;32.78;;;23.15;;
53062;SDS011;40529;52.172;10.548;2023-08-20T05:52:27;31.60;;;22.27;;
53062;SDS011;40529;52.172;10.548;2023-08-20T05:54:53;33.92;;;24.23;;
53062;SDS011;40529;52.172;10.548;2023-08-20T05:57:19;31.42;;;23.48;;
53062;SDS011;40529;52.172;10.548;2023-08-20T05:59:45;33.75;;;23.58;;
53062;SDS011;40529;52.172;10.548;2023-08-20T06:02:15;30.98;;;23.27;;
53062;SDS011;40529;52.172;10.548;2023-08-20T06:04:42;34.00;;;22.80;;
53062;SDS011;40529;52.172;10.548;2023-08-20T06:07:08;31.08;;;22.92;;
53062;SDS011;40529;52.172;10.548;2023-08-20T06:09:34;30.05;;;21.70;;
53062;SDS011;40529;52.172;10.548;2023-08-20T06:12:00;32.85;;;22.30;;
53062;SDS011;40529;52.172;10.548;2023-08-20T06:14:26;36.17;;;22.77;;
53062;SDS011;40529;52.172;10.548;2023-08-20T06:16:52;32.10;;;21.50;;
53062;SDS011;40529;52.172;10.548;2023-08-20T06:19:18;27.95;;;20.33;;
53062;SDS011;40529;52.172;10.548;2023-08-20T06:21:44;28.52;;;18.95;;
53062;SDS011;40529;52.172;10.548;2023-08-20T06:24:10;30.90;;;20.35;;
53062;SDS011;40529;52.172;10.548;2023-08-20T06:26:36;22.25;;;15.73;;
53062;SDS011;40529;52.172;10.548;2023-08-20T06:29:03;23.88;;;17.40;;
53062;SDS011;40529;52.172;10.548;2023-08-20T06:31:29;21.73;;;15.75;;
53062;SDS011;40529;52.172;10.548;2023-08-20T06:33:55;17.40;;;12.60;;
53062;SDS011;40529;52.172;10.548;2023-08-20T06:36:21;18.88;;;12.95;;
53062;SDS011;40529;52.172;10.548;2023-08-20T06:38:47;17.45;;;12.60;;
53062;SDS011;40529;52.172;10.548;2023-08-20T06:41:13;18.92;;;14.30;;
53062;SDS011;40529;52.172;10.548;2023-08-20T06:43:39;18.02;;;12.80;;
53062;SDS011;40529;52.172;10.548;2023-08-20T06:46:05;15.18;;;11.25;;
53062;SDS011;40529;52.172;10.548;2023-08-20T06:48:31;14.90;;;10.43;;
53062;SDS011;40529;52.172;10.548;2023-08-20T06:50:57;14.10;;;10.68;;
53062;SDS011;40529;52.172;10.548;2023-08-20T06:53:23;11.98;;;8.85;;
53062;SDS011;40529;52.172;10.548;2023-08-20T06:55:49;12.57;;;8.88;;
53062;SDS011;40529;52.172;10.548;2023-08-20T06:58:15;12.52;;;9.52;;
53062;SDS011;40529;52.172;10.548;2023-08-20T07:00:41;16.75;;;9.50;;
53062;SDS011;40529;52.172;10.548;2023-08-20T07:03:07;15.63;;;10.65;;
53062;SDS011;40529;52.172;10.548;2023-08-20T07:05:33;14.75;;;11.05;;
53062;SDS011;40529;52.172;10.548;2023-08-20T07:07:59;13.18;;;9.73;;
53062;SDS011;40529;52.172;10.548;2023-08-20T07:10:25;13.15;;;9.95;;
53062;SDS011;40529;52.172;10.548;2023-08-20T07:12:51;17.42;;;11.93;;
53062;SDS011;40529;52.172;10.548;2023-08-20T07:15:17;19.77;;;11.73;;
53062;SDS011;40529;52.172;10.548;2023-08-20T07:17:43;18.27;;;11.48;;
53062;SDS011;40529;52.172;10.548;2023-08-20T07:20:09;16.70;;;10.52;;
53062;SDS011;40529;52.172;10.548;2023-08-20T07:22:35;14.27;;;9.18;;
53062;SDS011;40529;52.172;10.548;2023-08-20T07:25:01;14.65;;;9.35;;
53062;SDS011;40529;52.172;10.548;2023-08-20T07:27:27;13.10;;;9.45;;
53062;SDS011;40529;52.172;10.548;2023-08-20T07:29:53;13.02;;;8.55;;
53062;SDS011;40529;52.172;10.548;2023-08-20T07:32:19;13.90;;;8.45;;
53062;SDS011;40529;52.172;10.548;2023-08-20T07:34:45;10.38;;;7.82;;
53062;SDS011;40529;52.172;10.548;2023-08-20T07:37:11;10.90;;;7.18;;
53062;SDS011;40529;52.172;10.548;2023-08-20T07:39:37;10.50;;;7.38;;
53062;SDS011;40529;52.172;10.548;2023-08-20T07:42:05;8.45;;;6.43;;
53062;SDS011;40529;52.172;10.548;2023-08-20T07:44:31;6.32;;;5.45;;
53062;SDS011;40529;52.172;10.548;2023-08-20T07:46:57;6.88;;;5.55;;
53062;SDS011;40529;52.172;10.548;2023-08-20T07:49:23;8.95;;;5.40;;
53062;SDS011;40529;52.172;10.548;2023-08-20T07:51:49;7.78;;;6.28;;
53062;SDS011;40529;52.172;10.548;2023-08-20T07:54:17;9.55;;;5.93;;
53062;SDS011;40529;52.172;10.548;2023-08-20T07:56:43;7.63;;;5.50;;
53062;SDS011;40529;52.172;10.548;2023-08-20T07:59:09;8.30;;;5.82;;
53062;SDS011;40529;52.172;10.548;2023-08-20T08:01:35;8.45;;;6.15;;
53062;SDS011;40529;52.172;10.548;2023-08-20T08:04:01;8.85;;;5.68;;
53062;SDS011;40529;52.172;10.548;2023-08-20T08:06:27;11.32;;;6.13;;
53062;SDS011;40529;52.172;10.548;2023-08-20T08:08:53;9.00;;;5.13;;
53062;SDS011;40529;52.172;10.548;2023-08-20T08:11:19;6.65;;;4.97;;
53062;SDS011;40529;52.172;10.548;2023-08-20T08:13:45;7.35;;;4.75;;
53062;SDS011;40529;52.172;10.548;2023-08-20T08:16:11;9.60;;;4.90;;
53062;SDS011;40529;52.172;10.548;2023-08-20T08:18:37;6.03;;;3.95;;
53062;SDS011;40529;52.172;10.548;2023-08-20T08:21:03;6.93;;;4.68;;
53062;SDS011;40529;52.172;10.548;2023-08-20T08:23:29;5.97;;;4.60;;
53062;SDS011;40529;52.172;10.548;2023-08-20T08:25:55;9.68;;;4.78;;
53062;SDS011;40529;52.172;10.548;2023-08-20T08:28:22;5.07;;;4.00;;
53062;SDS011;40529;52.172;10.548;2023-08-20T08:30:48;8.77;;;4.50;;
53062;SDS011;40529;52.172;10.548;2023-08-20T08:33:14;6.40;;;4.20;;
53062;SDS011;40529;52.172;10.548;2023-08-20T08:35:40;6.40;;;3.97;;
53062;SDS011;40529;52.172;10.548;2023-08-20T08:38:06;5.28;;;3.70;;
53062;SDS011;40529;52.172;10.548;2023-08-20T08:40:32;4.80;;;3.90;;
53062;SDS011;40529;52.172;10.548;2023-08-20T08:42:58;5.95;;;4.00;;
53062;SDS011;40529;52.172;10.548;2023-08-20T08:45:26;4.78;;;3.58;;
53062;SDS011;40529;52.172;10.548;2023-08-20T08:47:53;5.80;;;3.75;;
53062;SDS011;40529;52.172;10.548;2023-08-20T08:50:20;7.28;;;3.70;;
53062;SDS011;40529;52.172;10.548;2023-08-20T08:52:46;4.93;;;3.40;;
53062;SDS011;40529;52.172;10.548;2023-08-20T08:55:13;4.30;;;3.33;;
53062;SDS011;40529;52.172;10.548;2023-08-20T08:57:39;7.28;;;3.08;;
53062;SDS011;40529;52.172;10.548;2023-08-20T09:00:05;4.85;;;3.08;;
53062;SDS011;40529;52.172;10.548;2023-08-20T09:02:31;3.97;;;2.42;;
53062;SDS011;40529;52.172;10.548;2023-08-20T09:04:57;5.10;;;3.08;;
53062;SDS011;40529;52.172;10.548;2023-08-20T09:07:24;4.50;;;3.22;;
53062;SDS011;40529;52.172;10.548;2023-08-20T09:09:50;3.60;;;2.67;;
53062;SDS011;40529;52.172;10.548;2023-08-20T09:12:16;5.20;;;2.75;;
53062;SDS011;40529;52.172;10.548;2023-08-20T09:14:47;4.90;;;2.70;;
53062;SDS011;40529;52.172;10.548;2023-08-20T09:17:13;3.80;;;2.80;;
53062;SDS011;40529;52.172;10.548;2023-08-20T09:19:39;4.68;;;2.95;;
53062;SDS011;40529;52.172;10.548;2023-08-20T09:22:05;4.32;;;2.65;;
53062;SDS011;40529;52.172;10.548;2023-08-20T09:24:32;3.30;;;2.30;;
53062;SDS011;40529;52.172;10.548;2023-08-20T09:27:03;3.83;;;2.35;;
53062;SDS011;40529;52.172;10.548;2023-08-20T09:29:31;3.08;;;2.40;;
53062;SDS011;40529;52.172;10.548;2023-08-20T09:32:01;4.03;;;2.30;;
53062;SDS011;40529;52.172;10.548;2023-08-20T09:34:37;5.28;;;2.70;;
53062;SDS011;40529;52.172;10.548;2023-08-20T09:37:10;6.40;;;2.60;;
53062;SDS011;40529;52.172;10.548;2023-08-20T09:39:36;3.83;;;2.50;;
53062;SDS011;40529;52.172;10.548;2023-08-20T09:42:02;3.30;;;2.65;;
53062;SDS011;40529;52.172;10.548;2023-08-20T09:44:32;4.55;;;2.72;;
53062;SDS011;40529;52.172;10.548;2023-08-20T09:46:59;3.97;;;2.70;;
53062;SDS011;40529;52.172;10.548;2023-08-20T09:49:26;5.32;;;2.75;;
53062;SDS011;40529;52.172;10.548;2023-08-20T09:51:55;4.38;;;2.55;;
53062;SDS011;40529;52.172;10.548;2023-08-20T09:54:32;5.15;;;2.67;;
53062;SDS011;40529;52.172;10.548;2023-08-20T09:57:00;5.07;;;2.40;;
53062;SDS011;40529;52.172;10.548;2023-08-20T09:59:27;3.53;;;2.53;;
53062;SDS011;40529;52.172;10.548;2023-08-20T10:01:54;3.55;;;2.17;;
53062;SDS011;40529;52.172;10.548;2023-08-20T10:04:22;3.00;;;2.33;;
53062;SDS011;40529;52.172;10.548;2023-08-20T10:06:49;3.80;;;2.08;;
53062;SDS011;40529;52.172;10.548;2023-08-20T10:09:15;3.90;;;2.20;;
53062;SDS011;40529;52.172;10.548;2023-08-20T10:11:42;3.92;;;2.35;;
53062;SDS011;40529;52.172;10.548;2023-08-20T10:14:08;4.50;;;2.10;;
53062;SDS011;40529;52.172;10.548;2023-08-20T10:16:35;3.28;;;2.10;;
53062;SDS011;40529;52.172;10.548;2023-08-20T10:19:01;4.43;;;1.90;;
53062;SDS011;40529;52.172;10.548;2023-08-20T10:21:27;3.22;;;2.10;;
53062;SDS011;40529;52.172;10.548;2023-08-20T10:23:53;2.28;;;1.90;;
53062;SDS011;40529;52.172;10.548;2023-08-20T10:26:20;7.63;;;2.08;;
53062;SDS011;40529;52.172;10.548;2023-08-20T10:28:49;3.22;;;1.55;;
53062;SDS011;40529;52.172;10.548;2023-08-20T10:31:16;3.60;;;1.73;;
53062;SDS011;40529;52.172;10.548;2023-08-20T10:33:49;2.63;;;1.33;;
53062;SDS011;40529;52.172;10.548;2023-08-20T10:36:17;1.38;;;1.13;;
53062;SDS011;40529;52.172;10.548;2023-08-20T10:38:47;3.60;;;1.80;;
53062;SDS011;40529;52.172;10.548;2023-08-20T10:41:13;2.28;;;1.90;;
53062;SDS011;40529;52.172;10.548;2023-08-20T10:43:48;2.92;;;1.70;;
53062;SDS011;40529;52.172;10.548;2023-08-20T10:48:53;3.22;;;1.60;;
53062;SDS011;40529;52.172;10.548;2023-08-20T10:51:40;3.30;;;2.00;;
53062;SDS011;40529;52.172;10.548;2023-08-20T10:54:06;3.72;;;2.13;;
53062;SDS011;40529;52.172;10.548;2023-08-20T10:59:15;4.40;;;2.30;;
53062;SDS011;40529;52.172;10.548;2023-08-20T11:01:48;4.97;;;2.20;;
53062;SDS011;40529;52.172;10.548;2023-08-20T11:04:15;4.47;;;2.58;;
53062;SDS011;40529;52.172;10.548;2023-08-20T11:06:41;3.83;;;2.28;;
53062;SDS011;40529;52.172;10.548;2023-08-20T11:09:08;4.35;;;2.08;;
53062;SDS011;40529;52.172;10.548;2023-08-20T11:11:35;4.85;;;2.17;;
53062;SDS011;40529;52.172;10.548;2023-08-20T11:14:06;3.05;;;2.00;;
53062;SDS011;40529;52.172;10.548;2023-08-20T11:16:34;4.22;;;2.05;;
53062;SDS011;40529;52.172;10.548;2023-08-20T11:19:00;2.88;;;2.00;;
53062;SDS011;40529;52.172;10.548;2023-08-20T11:21:27;4.45;;;2.50;;
53062;SDS011;40529;52.172;10.548;2023-08-20T11:23:54;5.53;;;2.50;;
53062;SDS011;40529;52.172;10.548;2023-08-20T11:26:20;3.80;;;2.08;;
53062;SDS011;40529;52.172;10.548;2023-08-20T11:28:47;3.63;;;2.00;;
53062;SDS011;40529;52.172;10.548;2023-08-20T11:31:13;3.50;;;2.38;;
53062;SDS011;40529;52.172;10.548;2023-08-20T11:33:40;4.10;;;2.22;;
53062;SDS011;40529;52.172;10.548;2023-08-20T11:36:06;3.78;;;2.20;;
53062;SDS011;40529;52.172;10.548;2023-08-20T11:38:32;6.35;;;2.45;;
53062;SDS011;40529;52.172;10.548;2023-08-20T11:40:58;5.63;;;2.47;;
53062;SDS011;40529;52.172;10.548;2023-08-20T11:43:26;4.40;;;2.10;;
53062;SDS011;40529;52.172;10.548;2023-08-20T11:45:52;6.35;;;2.30;;
53062;SDS011;40529;52.172;10.548;2023-08-20T11:48:19;2.75;;;2.30;;
53062;SDS011;40529;52.172;10.548;2023-08-20T11:50:46;2.70;;;2.20;;
53062;SDS011;40529;52.172;10.548;2023-08-20T11:53:12;6.38;;;3.08;;
53062;SDS011;40529;52.172;10.548;2023-08-20T11:55:39;4.20;;;2.10;;
53062;SDS011;40529;52.172;10.548;2023-08-20T11:58:09;5.80;;;2.50;;
53062;SDS011;40529;52.172;10.548;2023-08-20T12:00:35;3.33;;;2.20;;
53062;SDS011;40529;52.172;10.548;2023-08-20T12:03:01;3.25;;;2.13;;
53062;SDS011;40529;52.172;10.548;2023-08-20T12:05:28;2.72;;;2.10;;
53062;SDS011;40529;52.172;10.548;2023-08-20T12:07:58;4.28;;;2.30;;
53062;SDS011;40529;52.172;10.548;2023-08-20T12:10:25;3.92;;;2.00;;
53062;SDS011;40529;52.172;10.548;2023-08-20T12:12:52;3.30;;;2.30;;
53062;SDS011;40529;52.172;10.548;2023-08-20T12:15:18;2.92;;;2.20;;
53062;SDS011;40529;52.172;10.548;2023-08-20T12:20:27;5.55;;;2.40;;
53062;SDS011;40529;52.172;10.548;2023-08-20T12:22:53;3.17;;;2.25;;
53062;SDS011;40529;52.172;10.548;2023-08-20T12:25:19;4.63;;;2.42;;
53062;SDS011;40529;52.172;10.548;2023-08-20T12:27:45;4.43;;;2.63;;
53062;SDS011;40529;52.172;10.548;2023-08-20T12:30:12;5.85;;;2.33;;
53062;SDS011;40529;52.172;10.548;2023-08-20T12:32:38;5.47;;;2.47;;
53062;SDS011;40529;52.172;10.548;2023-08-20T12:35:04;4.47;;;2.40;;
53062;SDS011;40529;52.172;10.548;2023-08-20T12:37:30;5.35;;;2.20;;
53062;SDS011;40529;52.172;10.548;2023-08-20T12:39:56;5.88;;;2.30;;
53062;SDS011;40529;52.172;10.548;2023-08-20T12:42:22;4.57;;;2.47;;
53062;SDS011;40529;52.172;10.548;2023-08-20T12:44:48;5.65;;;2.85;;
53062;SDS011;40529;52.172;10.548;2023-08-20T12:47:14;3.85;;;2.70;;
53062;SDS011;40529;52.172;10.548;2023-08-20T12:49:40;3.83;;;2.15;;
53062;SDS011;40529;52.172;10.548;2023-08-20T12:52:06;3.85;;;2.50;;
53062;SDS011;40529;52.172;10.548;2023-08-20T12:54:33;4.20;;;2.60;;
53062;SDS011;40529;52.172;10.548;2023-08-20T12:56:59;3.22;;;2.47;;
53062;SDS011;40529;52.172;10.548;2023-08-20T12:59:25;4.00;;;2.55;;
53062;SDS011;40529;52.172;10.548;2023-08-20T13:01:51;4.78;;;2.70;;
53062;SDS011;40529;52.172;10.548;2023-08-20T13:04:17;5.72;;;2.45;;
53062;SDS011;40529;52.172;10.548;2023-08-20T13:06:43;5.68;;;2.80;;
53062;SDS011;40529;52.172;10.548;2023-08-20T13:09:09;8.85;;;2.88;;
53062;SDS011;40529;52.172;10.548;2023-08-20T13:11:35;4.55;;;2.88;;
53062;SDS011;40529;52.172;10.548;2023-08-20T13:14:02;5.95;;;2.78;;
53062;SDS011;40529;52.172;10.548;2023-08-20T13:16:28;4.20;;;2.25;;
53062;SDS011;40529;52.172;10.548;2023-08-20T13:18:54;5.50;;;2.58;;
53062;SDS011;40529;52.172;10.548;2023-08-20T13:21:20;4.93;;;2.92;;
53062;SDS011;40529;52.172;10.548;2023-08-20T13:23:46;4.05;;;2.90;;
53062;SDS011;40529;52.172;10.548;2023-08-20T13:26:12;4.75;;;2.88;;
53062;SDS011;40529;52.172;10.548;2023-08-20T13:28:38;4.35;;;2.33;;
53062;SDS011;40529;52.172;10.548;2023-08-20T13:31:04;3.83;;;2.40;;
53062;SDS011;40529;52.172;10.548;2023-08-20T13:33:30;6.78;;;2.38;;
53062;SDS011;40529;52.172;10.548;2023-08-20T13:35:56;6.68;;;2.85;;
53062;SDS011;40529;52.172;10.548;2023-08-20T13:38:23;4.60;;;2.42;;
53062;SDS011;40529;52.172;10.548;2023-08-20T13:40:50;4.18;;;2.70;;
53062;SDS011;40529;52.172;10.548;2023-08-20T13:43:16;9.10;;;2.97;;
53062;SDS011;40529;52.172;10.548;2023-08-20T13:45:42;3.33;;;2.40;;
53062;SDS011;40529;52.172;10.548;2023-08-20T13:48:08;3.78;;;2.28;;
53062;SDS011;40529;52.172;10.548;2023-08-20T13:50:34;4.93;;;2.47;;
53062;SDS011;40529;52.172;10.548;2023-08-20T13:53:00;4.68;;;2.42;;
53062;SDS011;40529;52.172;10.548;2023-08-20T13:55:26;2.90;;;2.35;;
53062;SDS011;40529;52.172;10.548;2023-08-20T13:57:52;3.75;;;2.22;;
53062;SDS011;40529;52.172;10.548;2023-08-20T14:00:18;5.68;;;2.20;;
53062;SDS011;40529;52.172;10.548;2023-08-20T14:02:44;5.82;;;2.22;;
53062;SDS011;40529;52.172;10.548;2023-08-20T14:05:10;3.05;;;2.00;;
53062;SDS011;40529;52.172;10.548;2023-08-20T14:07:36;5.82;;;2.30;;
53062;SDS011;40529;52.172;10.548;2023-08-20T14:10:02;3.38;;;2.22;;
53062;SDS011;40529;52.172;10.548;2023-08-20T14:14:57;6.03;;;2.35;;
53062;SDS011;40529;52.172;10.548;2023-08-20T14:17:23;5.72;;;2.75;;
53062;SDS011;40529;52.172;10.548;2023-08-20T14:19:50;4.40;;;2.40;;
53062;SDS011;40529;52.172;10.548;2023-08-20T14:22:16;4.03;;;2.28;;
53062;SDS011;40529;52.172;10.548;2023-08-20T14:24:42;2.80;;;2.28;;
53062;SDS011;40529;52.172;10.548;2023-08-20T14:27:08;5.25;;;2.65;;
53062;SDS011;40529;52.172;10.548;2023-08-20T14:29:34;7.32;;;2.42;;
53062;SDS011;40529;52.172;10.548;2023-08-20T14:32:00;3.53;;;2.20;;
53062;SDS011;40529;52.172;10.548;2023-08-20T14:34:26;5.63;;;2.40;;
53062;SDS011;40529;52.172;10.548;2023-08-20T14:36:52;5.10;;;2.47;;